EGOM - Spadeadam
Distance from station: E 5mi, 14km
Updated: 06/23/2018 1:50pm
Clear
Clear
 Wind from W
Wind: W 6 mph , 9 km/h
Temperature: 48°F , 9°C
Wind Chill: 45°F , 7°C
Dew Point: 46°F , 8°C
Humidity: 94%
Barometer: 30.3 inHg , 1026 hPa
Clouds: Clear
Visibility: 6 miles , 10 km
2018/06/23 20:50 EGOM 232050Z AUTO 27005KT 9999 NCD 09/08 Q1026